Magnate — H9ZN — position and weather

sailwx.info

Track history (hours):
 
Tides and Currents Weather Stations Pressure Air Temp Water Temp Dewpoint Dewpoint Depression Visibility Wind Speed Wind Dir Waves Ship Positions

Magnate

Last reported at 2016-May-04 17:21 UTC. Time now 2016-May-05 06:42 UTC.
Position N 48°47' W 005°51'.

Length 140 m; draft 8.9 m.

Type: Cargo ship. MMSI: 357055000.

Date/timePositionNaut miles runAvg speedWind from/ knotsBaromVisibWave heightAir tempDewpointWater temp
2016-May-04 17:21N 48°47' W 005°51'911.7
2016-May-04 16:33N 48°54' W 005°43'4110.1
2016-May-04 12:30N 49°16' W 004°50'1110.4
2016-May-04 11:25N 49°22' W 004°35'1011.5
2016-May-04 10:33N 49°27' W 004°22'1712.3
2016-May-04 09:09N 49°35' W 003°59'912.5
2016-May-04 08:28N 49°40' W 003°47'1112.0
2016-May-04 07:32N 49°46' W 003°33'1111.2
2016-May-04 06:33N 49°51' W 003°18'1010.2
2016-May-04 05:33N 49°56' W 003°04'9 9.5
2016-May-04 04:33N 49°60' W 002°51'10 9.6
2016-May-04 03:31N 50°02' W 002°36'2110.3
2016-May-04 01:30N 50°02' W 002°03'1313.1
2016-May-04 00:32N 49°57' W 001°45'1414.0
2016-May-03 23:33N 49°51' W 001°26'1515.0
2016-May-03 22:33N 49°43' W 001°07'1413.3
2016-May-03 21:32N 49°35' W 000°49'1212.0
2016-May-03 20:34N 49°29' W 000°35'1111.1
2016-May-03 19:34N 49°23' W 000°20'7 7.2
2016-May-03 18:34N 49°17' W 000°15'2 2.1
2016-May-03 17:33N 49°15' W 000°16'2 1.7
2016-May-03 16:34N 49°14' W 000°18'0 0.0
2016-May-03 15:34N 49°14' W 000°18'0 0.0
2016-May-03 14:34N 49°14' W 000°18'0 0.0
2016-May-03 13:34N 49°14' W 000°18'0 0.0
2016-May-03 12:34N 49°14' W 000°18'0 0.0
2016-May-03 11:33N 49°14' W 000°18'0 0.0
2016-May-03 10:33N 49°14' W 000°18'0 0.0
2016-May-03 09:33N 49°14' W 000°18'0 0.0
2016-May-03 08:33N 49°14' W 000°18'0 0.0
2016-May-03 07:30N 49°14' W 000°18'0 0.0
2016-May-03 06:33N 49°14' W 000°18'0 0.0
2016-May-03 05:33N 49°14' W 000°18'0 0.0
2016-May-03 04:33N 49°14' W 000°18'0 0.0
2016-May-03 03:33N 49°14' W 000°18'0 0.0
2016-May-03 02:33N 49°14' W 000°18'0 0.0
2016-May-03 01:33N 49°14' W 000°18'0 0.0
2016-May-03 00:33N 49°14' W 000°18'0 0.0
2016-May-02 23:33N 49°14' W 000°18'0 0.0
2016-May-02 22:33N 49°14' W 000°18'0 0.0
2016-May-02 21:33N 49°14' W 000°18'0 0.0
2016-May-02 20:33N 49°14' W 000°18'0 0.0
2016-May-02 19:33N 49°14' W 000°18'0 0.0
2016-May-02 18:33N 49°14' W 000°18'0 0.0
2016-May-02 17:33N 49°14' W 000°18'0 0.0
2016-May-02 16:33N 49°14' W 000°18'0 0.0
2016-May-02 15:33N 49°14' W 000°18'0 0.0
2016-May-02 14:33N 49°14' W 000°18'0 0.0
2016-May-02 13:33N 49°14' W 000°18'0 0.0
2016-May-02 12:33N 49°14' W 000°18'0 0.0
2016-May-02 11:33N 49°14' W 000°18'0 0.0
2016-May-02 10:33N 49°14' W 000°18'0 0.0
2016-May-02 09:33N 49°14' W 000°18'0 0.0
2016-May-02 08:33N 49°14' W 000°18'0 0.0
2016-May-02 07:30N 49°14' W 000°18'0 0.0
2016-May-02 06:30N 49°14' W 000°18'0 0.0
2016-May-02 05:32N 49°14' W 000°18'0 0.0
2016-May-02 04:32N 49°14' W 000°18'0 0.0
2016-May-02 03:32N 49°14' W 000°18'0 0.0
2016-May-02 02:32N 49°14' W 000°18'0 0.0
2016-May-02 01:32N 49°14' W 000°18'0 0.0
2016-May-02 00:32N 49°14' W 000°18'0 0.0
2016-May-01 23:32N 49°14' W 000°18'0 0.0
2016-May-01 22:32N 49°14' W 000°18'0 0.0
2016-May-01 21:32N 49°14' W 000°18'0 0.0
2016-May-01 20:32N 49°14' W 000°18'0 0.0
2016-May-01 19:32N 49°14' W 000°18'0 0.0
2016-May-01 18:32N 49°14' W 000°18'0 0.0
2016-May-01 17:32N 49°14' W 000°18'0 0.0
2016-May-01 16:32N 49°14' W 000°18'0 0.0
2016-May-01 15:32N 49°14' W 000°18'1 1.2
2016-May-01 14:33N 49°14' W 000°17'3 3.0
2016-May-01 13:33N 49°17' W 000°15'10 9.8
2016-May-01 12:34N 49°25' W 000°24'1312.6
2016-May-01 11:33N 49°31' W 000°41'8710.9
2016-May-01 03:33N 49°49' W 002°53'1313.1
2016-May-01 02:33N 49°42' W 003°10'  
2016-Apr-27 05:28N 43°41' W 005°02'1111.8
2016-Apr-27 04:32N 43°42' W 005°17'1312.0
2016-Apr-27 03:29N 43°44' W 005°35'1112.0
2016-Apr-27 02:33N 43°45' W 005°50'1312.3
2016-Apr-27 01:31N 43°47' W 006°07'332 9.2
2016-Apr-25 13:33N 38°59' W 009°50'1211.9
2016-Apr-25 12:34N 38°47' W 009°51'1211.9
2016-Apr-25 11:33N 38°36' W 009°49'1212.0
2016-Apr-25 10:34N 38°24' W 009°45'1212.0
2016-Apr-25 09:33N 38°12' W 009°41'1212.1
2016-Apr-25 08:33N 38°01' W 009°37'1212.1
2016-Apr-25 07:33N 37°49' W 009°32'1212.2
2016-Apr-25 06:33N 37°37' W 009°31'1612.5
2016-Apr-25 05:15N 37°21' W 009°27'1012.6
2016-Apr-25 04:28N 37°11' W 009°24'  
Track history (hours):
 
Tides and Currents Weather Stations Pressure Air Temp Water Temp Dewpoint Dewpoint Depression Visibility Wind Speed Wind Dir Waves Ship Positions

Magnate

Last reported at 2016-May-04 17:21 UTC. Time now 2016-May-05 06:42 UTC.
Position N 48°47' W 005°51'.

Length 140 m; draft 8.9 m.

Type: Cargo ship. MMSI: 357055000.

Date/timePositionNaut miles runAvg speedWind from/ knotsBaromVisibWave heightAir tempDewpointWater temp
2016-May-04 17:21N 48°47' W 005°51'911.7
2016-May-04 16:33N 48°54' W 005°43'4110.1
2016-May-04 12:30N 49°16' W 004°50'1110.4
2016-May-04 11:25N 49°22' W 004°35'1011.5
2016-May-04 10:33N 49°27' W 004°22'1712.3
2016-May-04 09:09N 49°35' W 003°59'912.5
2016-May-04 08:28N 49°40' W 003°47'1112.0
2016-May-04 07:32N 49°46' W 003°33'1111.2
2016-May-04 06:33N 49°51' W 003°18'1010.2
2016-May-04 05:33N 49°56' W 003°04'9 9.5
2016-May-04 04:33N 49°60' W 002°51'10 9.6
2016-May-04 03:31N 50°02' W 002°36'2110.3
2016-May-04 01:30N 50°02' W 002°03'1313.1
2016-May-04 00:32N 49°57' W 001°45'1414.0
2016-May-03 23:33N 49°51' W 001°26'1515.0
2016-May-03 22:33N 49°43' W 001°07'1413.3
2016-May-03 21:32N 49°35' W 000°49'1212.0
2016-May-03 20:34N 49°29' W 000°35'1111.1
2016-May-03 19:34N 49°23' W 000°20'7 7.2
2016-May-03 18:34N 49°17' W 000°15'2 2.1
2016-May-03 17:33N 49°15' W 000°16'2 1.7
2016-May-03 16:34N 49°14' W 000°18'0 0.0
2016-May-03 15:34N 49°14' W 000°18'0 0.0
2016-May-03 14:34N 49°14' W 000°18'0 0.0
2016-May-03 13:34N 49°14' W 000°18'0 0.0
2016-May-03 12:34N 49°14' W 000°18'0 0.0
2016-May-03 11:33N 49°14' W 000°18'0 0.0
2016-May-03 10:33N 49°14' W 000°18'0 0.0
2016-May-03 09:33N 49°14' W 000°18'0 0.0
2016-May-03 08:33N 49°14' W 000°18'0 0.0
2016-May-03 07:30N 49°14' W 000°18'0 0.0
2016-May-03 06:33N 49°14' W 000°18'0 0.0
2016-May-03 05:33N 49°14' W 000°18'0 0.0
2016-May-03 04:33N 49°14' W 000°18'0 0.0
2016-May-03 03:33N 49°14' W 000°18'0 0.0
2016-May-03 02:33N 49°14' W 000°18'0 0.0
2016-May-03 01:33N 49°14' W 000°18'0 0.0
2016-May-03 00:33N 49°14' W 000°18'0 0.0
2016-May-02 23:33N 49°14' W 000°18'0 0.0
2016-May-02 22:33N 49°14' W 000°18'0 0.0
2016-May-02 21:33N 49°14' W 000°18'0 0.0
2016-May-02 20:33N 49°14' W 000°18'0 0.0
2016-May-02 19:33N 49°14' W 000°18'0 0.0
2016-May-02 18:33N 49°14' W 000°18'0 0.0
2016-May-02 17:33N 49°14' W 000°18'0 0.0
2016-May-02 16:33N 49°14' W 000°18'0 0.0
2016-May-02 15:33N 49°14' W 000°18'0 0.0
2016-May-02 14:33N 49°14' W 000°18'0 0.0
2016-May-02 13:33N 49°14' W 000°18'0 0.0
2016-May-02 12:33N 49°14' W 000°18'0 0.0
2016-May-02 11:33N 49°14' W 000°18'0 0.0
2016-May-02 10:33N 49°14' W 000°18'0 0.0
2016-May-02 09:33N 49°14' W 000°18'0 0.0
2016-May-02 08:33N 49°14' W 000°18'0 0.0
2016-May-02 07:30N 49°14' W 000°18'0 0.0
2016-May-02 06:30N 49°14' W 000°18'0 0.0
2016-May-02 05:32N 49°14' W 000°18'0 0.0
2016-May-02 04:32N 49°14' W 000°18'0 0.0
2016-May-02 03:32N 49°14' W 000°18'0 0.0
2016-May-02 02:32N 49°14' W 000°18'0 0.0
2016-May-02 01:32N 49°14' W 000°18'0 0.0
2016-May-02 00:32N 49°14' W 000°18'0 0.0
2016-May-01 23:32N 49°14' W 000°18'0 0.0
2016-May-01 22:32N 49°14' W 000°18'0 0.0
2016-May-01 21:32N 49°14' W 000°18'0 0.0
2016-May-01 20:32N 49°14' W 000°18'0 0.0
2016-May-01 19:32N 49°14' W 000°18'0 0.0
2016-May-01 18:32N 49°14' W 000°18'0 0.0
2016-May-01 17:32N 49°14' W 000°18'0 0.0
2016-May-01 16:32N 49°14' W 000°18'0 0.0
2016-May-01 15:32N 49°14' W 000°18'1 1.2
2016-May-01 14:33N 49°14' W 000°17'3 3.0
2016-May-01 13:33N 49°17' W 000°15'10 9.8
2016-May-01 12:34N 49°25' W 000°24'1312.6
2016-May-01 11:33N 49°31' W 000°41'8710.9
2016-May-01 03:33N 49°49' W 002°53'1313.1
2016-May-01 02:33N 49°42' W 003°10'  
2016-Apr-27 05:28N 43°41' W 005°02'1111.8
2016-Apr-27 04:32N 43°42' W 005°17'1312.0
2016-Apr-27 03:29N 43°44' W 005°35'1112.0
2016-Apr-27 02:33N 43°45' W 005°50'1312.3
2016-Apr-27 01:31N 43°47' W 006°07'332 9.2
2016-Apr-25 13:33N 38°59' W 009°50'1211.9
2016-Apr-25 12:34N 38°47' W 009°51'1211.9
2016-Apr-25 11:33N 38°36' W 009°49'1212.0
2016-Apr-25 10:34N 38°24' W 009°45'1212.0
2016-Apr-25 09:33N 38°12' W 009°41'1212.1
2016-Apr-25 08:33N 38°01' W 009°37'1212.1
2016-Apr-25 07:33N 37°49' W 009°32'1212.2
2016-Apr-25 06:33N 37°37' W 009°31'1612.5
2016-Apr-25 05:15N 37°21' W 009°27'1012.6
2016-Apr-25 04:28N 37°11' W 009°24'  

Dump ship's entire track history